Time;durP1;ratioP1;P1;durP2;ratioP2;P2;SDS_P1;SDS_P2;PMS_P1;PMS_P2;Temp;Humidity;BMP_temperature;BMP_pressure;BME280_temperature;BME280_humidity;BME280_pressure;Samples;Min_cycle;Max_cycle;Signal;HPM_P1;HPM_P2
2023/03/27 00:01:53;;;;;;;8.30;0.70;;;-0.90;99.90;;;;;;5065523;28;20127;-41
2023/03/27 00:04:20;;;;;;;11.43;1.98;;;-1.00;99.90;;;;;;5065589;28;20664;-42
2023/03/27 00:06:47;;;;;;;9.95;1.02;;;-0.90;99.90;;;;;;5066211;28;20147;-42
2023/03/27 00:09:15;;;;;;;9.15;1.38;;;-0.90;99.90;;;;;;5066062;28;20032;-42
2023/03/27 00:11:41;;;;;;;6.00;0.73;;;-1.10;99.90;;;;;;5066002;28;20581;-41
2023/03/27 00:14:07;;;;;;;7.72;1.88;;;-0.90;99.90;;;;;;5066021;28;20074;-41
2023/03/27 00:16:33;;;;;;;10.65;2.30;;;-0.90;99.90;;;;;;5066089;28;20048;-41
2023/03/27 00:18:59;;;;;;;7.53;1.02;;;-0.80;99.90;;;;;;5065400;28;20082;-42
2023/03/27 00:21:25;;;;;;;6.00;1.20;;;-0.60;99.90;;;;;;5065921;28;20049;-42
2023/03/27 00:23:53;;;;;;;5.88;1.77;;;-0.80;99.90;;;;;;5065862;28;20059;-41
2023/03/27 00:26:20;;;;;;;8.23;1.25;;;0.10;99.90;;;;;;5066069;28;20048;-42
2023/03/27 00:28:47;;;;;;;12.63;1.35;;;-0.80;99.90;;;;;;5066291;28;20044;-41
2023/03/27 00:31:14;;;;;;;8.43;0.90;;;-0.80;99.90;;;;;;5065635;28;20048;-42
2023/03/27 00:33:41;;;;;;;13.00;0.93;;;-0.50;99.90;;;;;;5065994;28;20042;-41
2023/03/27 00:36:08;;;;;;;10.82;0.82;;;-0.60;99.90;;;;;;5065901;28;20052;-41
2023/03/27 00:38:34;;;;;;;10.63;2.13;;;-0.60;99.90;;;;;;5066013;28;20159;-41
2023/03/27 00:40:59;;;;;;;9.57;0.95;;;-0.50;99.90;;;;;;5065944;28;20127;-41
2023/03/27 00:43:33;;;;;;;8.70;1.08;;;-0.60;99.90;;;;;;5065845;28;20033;-41
2023/03/27 00:46:04;;;;;;;11.52;1.13;;;-0.60;99.90;;;;;;5065831;28;20048;-41
2023/03/27 00:48:34;;;;;;;6.95;1.15;;;-0.70;99.90;;;;;;5065732;28;20052;-41
2023/03/27 00:51:00;;;;;;;11.38;0.90;;;-0.70;99.90;;;;;;5065374;28;20057;-41
2023/03/27 00:53:28;;;;;;;7.97;0.80;;;-0.70;99.90;;;;;;5065644;28;20120;-42
2023/03/27 00:55:57;;;;;;;7.32;0.57;;;-0.70;99.90;;;;;;5065620;28;20039;-41
2023/03/27 00:58:32;;;;;;;5.82;0.60;;;-0.90;99.90;;;;;;5064886;28;20750;-42
2023/03/27 01:00:58;;;;;;;10.57;0.50;;;-0.20;99.90;;;;;;5065413;28;20036;-42
2023/03/27 01:03:29;;;;;;;11.68;0.70;;;-0.90;99.90;;;;;;5065314;28;20133;-41
2023/03/27 01:05:57;;;;;;;10.38;0.82;;;-0.80;99.90;;;;;;5065753;28;20532;-41
2023/03/27 01:08:24;;;;;;;9.80;0.85;;;-0.80;99.90;;;;;;5065336;28;20084;-41
2023/03/27 01:11:24;;;;;;;9.02;0.50;;;-0.80;99.90;;;;;;5065865;28;20103;-41
2023/03/27 01:14:30;;;;;;;9.65;1.30;;;-0.70;99.90;;;;;;5065757;28;20071;-41
2023/03/27 01:17:15;;;;;;;12.27;0.82;;;-0.70;99.90;;;;;;5061126;28;20066;-41
2023/03/27 01:19:41;;;;;;;9.13;0.40;;;-0.70;99.90;;;;;;5065616;28;20049;-41
2023/03/27 01:22:37;;;;;;;7.05;0.47;;;-0.70;99.90;;;;;;5065099;28;20044;-42
2023/03/27 01:25:53;;;;;;;4.57;0.70;;;-0.70;99.90;;;;;;5064923;28;20402;-42
2023/03/27 01:28:26;;;;;;;7.97;0.43;;;-0.70;99.90;;;;;;4983096;28;20050;-41
2023/03/27 01:31:01;;;;;;;8.13;0.95;;;-0.70;99.90;;;;;;4983075;28;20054;-41
2023/03/27 01:33:52;;;;;;;4.93;0.52;;;-0.70;99.90;;;;;;5029762;28;20053;-41
2023/03/27 01:36:36;;;;;;;12.20;0.73;;;-0.80;99.90;;;;;;5065219;28;20083;-41
2023/03/27 01:39:20;;;;;;;4.72;0.50;;;-0.70;99.90;;;;;;5065386;28;20040;-41
2023/03/27 01:41:58;;;;;;;6.50;0.52;;;-0.60;99.90;;;;;;5064829;28;20059;-41
2023/03/27 01:44:26;;;;;;;8.63;0.50;;;-0.70;99.90;;;;;;5064779;28;20057;-42
2023/03/27 01:47:08;;;;;;;6.88;0.57;;;-0.50;99.90;;;;;;5065074;28;20190;-41
2023/03/27 01:49:40;;;;;;;8.57;0.47;;;-0.60;99.90;;;;;;5064944;28;20040;-42
2023/03/27 01:52:18;;;;;;;9.23;0.60;;;-0.50;99.90;;;;;;5049245;28;20079;-41
2023/03/27 01:54:54;;;;;;;8.65;0.43;;;-0.50;99.90;;;;;;5068836;28;20800;-43
2023/03/27 01:57:52;;;;;;;8.07;0.60;;;-0.50;99.90;;;;;;5067752;28;20072;-41
2023/03/27 02:00:22;;;;;;;5.18;0.50;;;-0.50;99.90;;;;;;5068025;28;20564;-41
2023/03/27 02:03:08;;;;;;;9.05;2.38;;;-0.50;99.90;;;;;;5068106;28;20510;-41
2023/03/27 02:05:46;;;;;;;7.57;0.85;;;-0.40;99.90;;;;;;5068225;28;20382;-42
2023/03/27 02:08:36;;;;;;;5.93;0.50;;;-0.10;99.90;;;;;;5068514;28;20134;-41
2023/03/27 02:11:03;;;;;;;4.63;0.82;;;-0.40;99.90;;;;;;5068014;28;20049;-42
2023/03/27 02:13:39;;;;;;;4.95;0.30;;;0.90;99.90;;;;;;5068084;28;20098;-41
2023/03/27 02:16:07;;;;;;;11.90;0.88;;;-0.40;99.90;;;;;;5068039;28;20505;-42
2023/03/27 02:18:46;;;;;;;7.57;0.70;;;-0.40;99.90;;;;;;5067104;28;20482;-43
2023/03/27 02:21:13;;;;;;;5.88;0.70;;;-0.40;99.90;;;;;;5067960;28;20135;-41
2023/03/27 02:23:39;;;;;;;6.05;0.50;;;-0.30;99.90;;;;;;5067958;28;20052;-41
2023/03/27 02:26:05;;;;;;;5.55;0.30;;;-0.50;99.90;;;;;;5067822;28;20074;-41
2023/03/27 02:28:33;;;;;;;6.20;0.80;;;-0.50;99.90;;;;;;5067586;28;20054;-41
2023/03/27 02:31:14;;;;;;;6.68;0.50;;;-0.50;99.90;;;;;;5067969;28;20558;-42
2023/03/27 02:34:03;;;;;;;5.93;0.45;;;-0.60;99.90;;;;;;5067880;28;20045;-42
2023/03/27 02:36:47;;;;;;;6.70;0.63;;;-0.60;99.90;;;;;;5068026;28;20053;-41
2023/03/27 02:39:32;;;;;;;4.53;0.47;;;-0.70;99.90;;;;;;5067985;28;20123;-43
2023/03/27 02:42:05;;;;;;;9.52;0.50;;;-0.60;99.90;;;;;;5068214;28;20060;-41
2023/03/27 02:44:34;;;;;;;;;;;-0.60;99.90;;;;;;5049736;28;20436;-42
2023/03/27 02:47:15;;;;;;;7.47;0.50;;;-2.80;99.90;;;;;;5067808;28;20015;-41
2023/03/27 02:49:50;;;;;;;5.65;0.30;;;-0.10;99.90;;;;;;5067580;28;20076;-41
2023/03/27 02:52:35;;;;;;;11.93;1.95;;;-0.30;99.90;;;;;;5067557;28;20398;-41
2023/03/27 02:55:07;;;;;;;4.40;0.22;;;-0.20;99.90;;;;;;5067296;28;20050;-41
2023/03/27 02:57:37;;;;;;;7.53;0.52;;;-0.20;99.90;;;;;;5066779;28;20056;-41
2023/03/27 03:00:11;;;;;;;8.40;0.40;;;-0.20;99.90;;;;;;5067517;28;20047;-41
2023/03/27 03:02:38;;;;;;;6.07;0.85;;;-0.20;99.90;;;;;;5048308;28;20139;-41
2023/03/27 03:05:13;;;;;;;6.55;0.45;;;-0.10;99.90;;;;;;5067429;28;20052;-41
2023/03/27 03:07:39;;;;;;;6.00;0.75;;;-0.10;99.90;;;;;;5067246;28;20458;-41
2023/03/27 03:10:07;;;;;;;7.55;0.82;;;-0.20;99.90;;;;;;5066670;28;20123;-41
2023/03/27 03:12:33;;;;;;;6.78;0.47;;;-0.20;99.90;;;;;;5066877;28;20036;-43
2023/03/27 03:14:59;;;;;;;11.98;0.70;;;-0.30;99.90;;;;;;5066639;28;20371;-41
2023/03/27 03:17:24;;;;;;;7.82;1.02;;;-0.30;99.90;;;;;;5066580;28;20050;-41
2023/03/27 03:19:50;;;;;;;4.43;0.50;;;-0.40;99.90;;;;;;5066685;28;20393;-43
2023/03/27 03:22:16;;;;;;;15.02;0.63;;;-0.40;99.90;;;;;;5066701;28;20044;-41
2023/03/27 03:24:42;;;;;;;9.63;0.35;;;-0.50;99.90;;;;;;5066587;28;20040;-41
2023/03/27 03:27:08;;;;;;;8.68;0.70;;;-0.50;99.90;;;;;;5066887;28;20051;-42
2023/03/27 03:29:35;;;;;;;10.02;1.20;;;-0.60;99.90;;;;;;5066095;28;20093;-43
2023/03/27 03:32:03;;;;;;;5.68;0.73;;;-0.60;99.90;;;;;;5048712;28;20059;-41
2023/03/27 03:34:29;;;;;;;10.60;0.93;;;-1.50;99.90;;;;;;5066805;28;20050;-41
2023/03/27 03:36:55;;;;;;;11.18;0.85;;;-0.70;99.90;;;;;;5066543;28;20093;-41
2023/03/27 03:39:21;;;;;;;7.25;0.50;;;-0.70;99.90;;;;;;5067047;28;20442;-41
2023/03/27 03:41:47;;;;;;;10.10;1.30;;;1.20;99.90;;;;;;5066831;28;20056;-43
2023/03/27 03:44:13;;;;;;;9.35;1.15;;;-0.70;99.90;;;;;;5067205;28;20395;-42
2023/03/27 03:46:39;;;;;;;10.80;0.57;;;-0.60;99.90;;;;;;5066543;28;20051;-42
2023/03/27 03:49:05;;;;;;;6.55;1.13;;;-0.60;99.90;;;;;;5067061;28;20041;-41
2023/03/27 03:51:32;;;;;;;7.50;1.27;;;-0.80;99.90;;;;;;5066576;28;20050;-42
2023/03/27 03:53:58;;;;;;;9.20;1.30;;;-0.90;99.90;;;;;;5066537;28;20044;-41
2023/03/27 03:56:26;;;;;;;7.40;1.25;;;;;;;;;;5066500;28;20126;-41
2023/03/27 03:58:52;;;;;;;9.00;0.65;;;-0.90;99.90;;;;;;5066138;28;20115;-41
2023/03/27 04:01:19;;;;;;;9.60;0.65;;;-0.90;99.90;;;;;;5066608;28;20127;-41
2023/03/27 04:03:46;;;;;;;9.90;0.70;;;-1.00;99.90;;;;;;5065786;28;20498;-44
2023/03/27 04:06:11;;;;;;;5.25;0.50;;;-0.90;99.90;;;;;;5065443;28;20099;-41
2023/03/27 04:08:38;;;;;;;8.13;0.60;;;-0.80;99.90;;;;;;5066183;28;20090;-42
2023/03/27 04:11:04;;;;;;;6.85;1.48;;;-0.80;99.90;;;;;;5066448;28;20496;-41
2023/03/27 04:13:30;;;;;;;4.03;0.60;;;-1.00;99.90;;;;;;5065959;28;20032;-41
2023/03/27 04:15:56;;;;;;;7.22;0.75;;;-0.90;99.90;;;;;;5066077;28;20037;-42
2023/03/27 04:18:31;;;;;;;9.60;1.63;;;-0.90;99.90;;;;;;5065519;28;20040;-42
2023/03/27 04:20:59;;;;;;;6.93;0.50;;;-0.90;99.90;;;;;;5065936;28;20087;-41
2023/03/27 04:23:34;;;;;;;10.30;0.60;;;-0.90;99.90;;;;;;5066250;28;20040;-41
2023/03/27 04:26:02;;;;;;;10.20;0.88;;;-0.80;99.90;;;;;;5066241;28;20036;-42
2023/03/27 04:28:33;;;;;;;7.53;1.10;;;-0.80;99.90;;;;;;5065996;28;20044;-41
2023/03/27 04:31:05;;;;;;;6.57;1.35;;;-0.60;99.90;;;;;;5066179;28;20044;-41
2023/03/27 04:33:38;;;;;;;6.43;0.90;;;-0.40;99.90;;;;;;5047531;28;20084;-41
2023/03/27 04:36:05;;;;;;;10.10;0.77;;;-0.40;99.90;;;;;;5065770;28;20483;-41
2023/03/27 04:38:33;;;;;;;10.18;1.00;;;-0.10;99.90;;;;;;5065259;28;20051;-41
2023/03/27 04:40:58;;;;;;;6.00;1.05;;;0.00;99.90;;;;;;5065719;28;20382;-41
2023/03/27 04:43:27;;;;;;;9.95;1.95;;;0.00;99.90;;;;;;5065989;28;20076;-42
2023/03/27 04:45:53;;;;;;;12.43;0.93;;;-0.20;99.90;;;;;;5065633;28;20103;-40
2023/03/27 04:48:20;;;;;;;7.10;0.80;;;-0.20;99.90;;;;;;5066392;28;20118;-41
2023/03/27 04:50:49;;;;;;;11.63;1.50;;;-0.40;99.90;;;;;;5065272;28;20050;-40
2023/03/27 04:53:16;;;;;;;9.02;0.50;;;0.30;99.90;;;;;;5065479;28;20907;-40
2023/03/27 04:55:46;;;;;;;12.25;1.13;;;-0.40;99.90;;;;;;5065348;28;20044;-42
2023/03/27 04:58:12;;;;;;;9.07;2.70;;;-0.40;99.90;;;;;;5065415;28;20102;-41
2023/03/27 05:00:39;;;;;;;7.63;1.40;;;-0.40;99.90;;;;;;5065508;28;20119;-41
2023/03/27 05:03:05;;;;;;;12.18;0.93;;;2.30;99.90;;;;;;5065191;28;20051;-41
2023/03/27 05:05:31;;;;;;;9.20;0.52;;;-0.40;99.90;;;;;;5065111;28;20075;-41
2023/03/27 05:07:56;;;;;;;5.80;0.70;;;-0.40;99.90;;;;;;5065063;28;20508;-41
2023/03/27 05:10:23;;;;;;;10.52;1.05;;;-0.40;99.90;;;;;;5066188;28;20175;-42
2023/03/27 05:12:51;;;;;;;9.43;0.73;;;-0.50;99.90;;;;;;5065779;28;20127;-41
2023/03/27 05:15:17;;;;;;;6.82;0.63;;;-0.50;99.90;;;;;;5065968;28;20052;-40
2023/03/27 05:17:45;;;;;;;5.43;0.88;;;-0.40;99.90;;;;;;5065666;28;20452;-41
2023/03/27 05:20:15;;;;;;;12.27;0.80;;;-0.30;99.90;;;;;;5066231;28;20472;-41
2023/03/27 05:22:41;;;;;;;7.25;0.93;;;-0.20;99.90;;;;;;5065956;28;20040;-42
2023/03/27 05:25:07;;;;;;;7.25;1.27;;;-0.20;99.90;;;;;;5065880;28;20045;-42
2023/03/27 05:27:33;;;;;;;4.25;0.70;;;-0.20;99.90;;;;;;5067957;28;20125;-41
2023/03/27 05:29:59;;;;;;;8.02;1.02;;;-0.30;99.90;;;;;;5069219;28;20107;-40
2023/03/27 05:32:25;;;;;;;7.80;1.27;;;-0.30;99.90;;;;;;5068671;28;20055;-42
2023/03/27 05:34:53;;;;;;;9.35;0.88;;;-0.40;99.90;;;;;;5068897;28;20040;-41
2023/03/27 05:37:20;;;;;;;4.43;0.75;;;-0.50;99.90;;;;;;5068567;28;20048;-41
2023/03/27 05:39:46;;;;;;;9.20;0.73;;;-0.50;99.90;;;;;;5068353;28;20120;-44
2023/03/27 05:42:15;;;;;;;10.70;0.93;;;-0.50;99.90;;;;;;5068833;28;20127;-42
2023/03/27 05:44:42;;;;;;;6.82;0.70;;;-0.50;99.90;;;;;;5068676;28;20060;-41
2023/03/27 05:47:11;;;;;;;7.97;0.75;;;-0.50;99.90;;;;;;5050105;28;20041;-40
2023/03/27 05:49:38;;;;;;;11.45;0.85;;;-0.50;99.90;;;;;;5068450;28;20055;-41
2023/03/27 05:52:04;;;;;;;8.82;1.35;;;-0.20;99.90;;;;;;5068556;28;20055;-40
2023/03/27 05:54:29;;;;;;;7.28;0.80;;;-0.40;99.90;;;;;;5068689;28;20041;-41
2023/03/27 05:56:55;;;;;;;9.77;1.02;;;-0.30;99.90;;;;;;5067904;28;20044;-41
2023/03/27 05:59:21;;;;;;;10.23;0.93;;;1.20;99.90;;;;;;5068564;28;20129;-42
2023/03/27 06:01:48;;;;;;;5.35;0.63;;;-0.20;99.90;;;;;;5068411;28;20048;-42
2023/03/27 06:04:16;;;;;;;8.43;1.55;;;0.20;99.90;;;;;;5068395;28;20093;-41
2023/03/27 06:06:45;;;;;;;5.90;0.50;;;0.70;99.90;;;;;;5068447;28;20190;-41
2023/03/27 06:09:11;;;;;;;9.40;0.93;;;;;;;;;;5068067;28;20543;-42
2023/03/27 06:11:38;;;;;;;10.23;0.80;;;1.10;99.90;;;;;;5067739;28;20511;-41
2023/03/27 06:14:03;;;;;;;3.67;0.50;;;1.00;99.90;;;;;;5068206;28;20080;-42
2023/03/27 06:16:29;;;;;;;4.68;0.75;;;1.80;99.90;;;;;;5068475;28;20076;-41
2023/03/27 06:18:55;;;;;;;3.42;0.70;;;2.90;99.90;;;;;;5067838;28;20456;-42
2023/03/27 06:21:20;;;;;;;4.78;0.35;;;3.90;99.90;;;;;;5068440;28;20500;-43
2023/03/27 06:23:46;;;;;;;6.32;0.88;;;4.20;99.90;;;;;;5068400;28;20127;-42
2023/03/27 06:26:12;;;;;;;4.35;0.40;;;4.20;99.90;;;;;;5068704;28;20080;-42
2023/03/27 06:28:38;;;;;;;3.22;0.20;;;5.70;99.90;;;;;;5068322;28;20367;-43
2023/03/27 06:31:04;;;;;;;4.30;0.40;;;3.70;99.90;;;;;;5068125;28;20380;-41
2023/03/27 06:33:30;;;;;;;4.13;0.30;;;3.70;99.90;;;;;;5068188;28;20041;-43
2023/03/27 06:36:00;;;;;;;4.00;0.30;;;3.60;99.90;;;;;;5067829;28;20045;-41
2023/03/27 06:38:30;;;;;;;3.03;0.98;;;3.60;99.90;;;;;;5067883;28;20119;-42
2023/03/27 06:40:55;;;;;;;4.78;0.20;;;3.60;99.90;;;;;;5068108;28;20036;-42
2023/03/27 06:43:21;;;;;;;4.88;0.40;;;3.80;99.90;;;;;;5068220;28;20070;-42
2023/03/27 06:45:49;;;;;;;6.63;1.10;;;3.80;99.90;;;;;;5067898;28;20048;-42
2023/03/27 06:48:16;;;;;;;3.35;0.20;;;3.60;99.90;;;;;;5067939;28;20098;-42
2023/03/27 06:50:44;;;;;;;5.90;0.30;;;3.50;99.90;;;;;;5067962;28;20084;-42
2023/03/27 06:53:10;;;;;;;4.40;0.55;;;3.40;99.90;;;;;;5067812;28;20050;-42
2023/03/27 06:55:36;;;;;;;5.35;0.30;;;3.50;99.90;;;;;;5067491;28;20779;-42
2023/03/27 06:58:03;;;;;;;5.80;0.30;;;3.50;99.90;;;;;;5067079;28;20044;-43
2023/03/27 07:00:32;;;;;;;5.78;0.60;;;3.50;99.90;;;;;;5067908;28;20047;-43
2023/03/27 07:03:00;;;;;;;5.57;0.22;;;3.90;99.90;;;;;;5067155;28;20091;-42
2023/03/27 07:05:28;;;;;;;4.40;0.25;;;3.90;99.90;;;;;;5067132;28;20098;-43
2023/03/27 07:07:55;;;;;;;6.05;0.30;;;3.90;99.90;;;;;;5066831;28;20391;-42
2023/03/27 07:10:22;;;;;;;4.32;1.27;;;4.10;99.90;;;;;;5066835;28;20048;-42
2023/03/27 07:12:50;;;;;;;8.25;0.38;;;4.30;99.90;;;;;;5067030;28;20044;-42
2023/03/27 07:15:16;;;;;;;4.18;1.00;;;4.40;99.90;;;;;;5066831;28;20047;-42
2023/03/27 07:17:43;;;;;;;6.68;0.20;;;4.40;99.90;;;;;;5066953;28;20047;-45
2023/03/27 07:20:12;;;;;;;7.32;0.32;;;4.30;99.90;;;;;;5066910;28;20060;-43
2023/03/27 07:22:41;;;;;;;6.88;0.28;;;4.30;99.90;;;;;;5048020;28;20397;-42
2023/03/27 07:25:09;;;;;;;6.07;0.35;;;4.20;99.90;;;;;;5066337;28;20076;-43
2023/03/27 07:27:36;;;;;;;7.35;0.52;;;4.10;99.90;;;;;;5066783;28;20044;-42
2023/03/27 07:30:02;;;;;;;4.30;0.20;;;4.20;99.90;;;;;;5048652;28;20489;-44
2023/03/27 07:32:28;;;;;;;4.95;1.13;;;4.40;99.90;;;;;;5066942;28;20032;-42
2023/03/27 07:34:57;;;;;;;5.07;0.22;;;4.60;99.90;;;;;;5048684;28;20047;-41
2023/03/27 07:37:23;;;;;;;7.43;0.85;;;5.40;99.90;;;;;;5067124;28;20048;-42
2023/03/27 07:39:49;;;;;;;4.38;0.25;;;5.00;99.90;;;;;;5066670;28;20082;-42
2023/03/27 07:42:14;;;;;;;5.93;0.30;;;4.80;99.90;;;;;;5066446;28;20140;-42
2023/03/27 07:44:40;;;;;;;9.00;0.75;;;5.10;99.90;;;;;;5066597;28;20048;-41
2023/03/27 07:47:06;;;;;;;3.10;0.20;;;5.30;99.90;;;;;;5066216;28;20059;-41
2023/03/27 07:49:32;;;;;;;9.65;0.60;;;6.60;99.90;;;;;;5065746;28;20048;-42
2023/03/27 07:51:59;;;;;;;3.58;0.52;;;6.80;99.90;;;;;;5066252;28;20056;-41
2023/03/27 07:54:25;;;;;;;7.50;0.88;;;5.60;99.90;;;;;;5066313;28;20394;-42
2023/03/27 07:56:52;;;;;;;4.43;0.32;;;5.90;99.90;;;;;;5066658;28;20796;-43
2023/03/27 07:59:19;;;;;;;5.20;0.25;;;5.30;99.90;;;;;;5066556;28;20617;-41
2023/03/27 08:01:47;;;;;;;3.90;0.40;;;5.00;99.90;;;;;;5065875;28;20482;-42
2023/03/27 08:04:14;;;;;;;4.45;0.30;;;4.60;99.90;;;;;;5065507;28;20059;-42
2023/03/27 08:06:39;;;;;;;5.05;0.65;;;4.60;99.90;;;;;;5065862;28;20072;-41
2023/03/27 08:09:05;;;;;;;2.95;0.17;;;4.80;99.90;;;;;;5065835;28;20052;-42
2023/03/27 08:11:31;;;;;;;6.60;0.35;;;5.00;99.90;;;;;;5065128;28;20581;-43
2023/03/27 08:13:58;;;;;;;6.13;1.02;;;5.70;99.90;;;;;;5065947;28;20315;-43
2023/03/27 08:16:27;;;;;;;4.63;0.20;;;5.90;99.90;;;;;;5066096;28;20115;-43
2023/03/27 08:18:53;;;;;;;5.28;0.40;;;7.90;99.90;;;;;;5066025;28;20040;-42
2023/03/27 08:21:19;;;;;;;6.20;0.50;;;8.10;99.90;;;;;;5065951;28;20488;-42
2023/03/27 08:23:46;;;;;;;8.23;0.63;;;8.80;99.90;;;;;;5066244;28;20056;-43
2023/03/27 08:26:13;;;;;;;8.10;0.70;;;9.60;99.90;;;;;;5066084;28;20954;-43
2023/03/27 08:28:39;;;;;;;9.27;0.40;;;10.10;99.90;;;;;;5066030;28;20044;-43
2023/03/27 08:31:13;;;;;;;4.18;0.30;;;9.70;99.90;;;;;;5065863;28;20041;-43
2023/03/27 08:33:40;;;;;;;3.03;0.30;;;9.80;99.90;;;;;;5066005;28;20044;-42
2023/03/27 08:36:10;;;;;;;3.35;0.30;;;9.80;99.90;;;;;;5065915;28;20769;-43
2023/03/27 08:38:38;;;;;;;4.03;0.20;;;9.70;99.90;;;;;;5066215;28;20179;-43
2023/03/27 08:41:05;;;;;;;1.83;0.20;;;10.10;99.90;;;;;;5065913;28;20048;-43
2023/03/27 08:43:42;;;;;;;2.80;0.15;;;11.80;99.90;;;;;;5065824;28;20052;-44
2023/03/27 08:46:20;;;;;;;4.60;1.10;;;12.20;99.90;;;;;;5034890;28;20090;-45
2023/03/27 08:48:56;;;;;;;1.90;0.10;;;13.50;99.90;;;;;;5077851;28;20105;-51
2023/03/27 08:51:31;;;;;;;2.40;0.20;;;14.30;98.70;;;;;;5082555;28;20447;-56
2023/03/27 08:54:22;;;;;;;3.00;0.30;;;15.50;95.70;;;;;;5083779;28;20546;-56
2023/03/27 08:56:49;;;;;;;2.55;0.25;;;15.70;91.90;;;;;;5084682;28;20044;-55
2023/03/27 08:59:18;;;;;;;4.00;0.30;;;16.10;92.80;;;;;;5084033;28;20040;-55
2023/03/27 09:01:49;;;;;;;5.45;0.47;;;16.30;85.50;;;;;;5089531;28;20051;-57
2023/03/27 09:04:40;;;;;;;3.22;0.47;;;16.30;83.10;;;;;;5089067;28;20429;-46
2023/03/27 09:07:33;;;;;;;5.28;0.43;;;15.70;82.70;;;;;;5090099;28;20164;-44
2023/03/27 09:10:14;;;;;;;6.47;0.30;;;15.30;85.60;;;;;;5089186;28;20139;-46
2023/03/27 09:12:49;;;;;;;3.63;0.30;;;15.50;84.30;;;;;;5089414;28;20048;-46
2023/03/27 09:15:21;;;;;;;1.98;0.20;;;16.20;85.80;;;;;;5090549;28;20044;-47
2023/03/27 09:17:49;;;;;;;;;;;16.60;84.90;;;;;;5090903;28;20456;-46
2023/03/27 09:20:23;;;;;;;5.35;0.40;;;17.00;86.10;;;;;;5089749;28;19915;-47
2023/03/27 09:22:54;;;;;;;5.47;0.30;;;17.20;84.70;;;;;;5090039;28;20048;-47
2023/03/27 09:25:33;;;;;;;3.80;0.32;;;16.90;79.50;;;;;;5089932;28;20152;-47
2023/03/27 09:28:00;;;;;;;2.90;0.22;;;17.60;79.80;;;;;;5090093;28;20050;-47
2023/03/27 09:30:31;;;;;;;4.95;0.40;;;16.70;79.90;;;;;;5089876;28;20055;-51
2023/03/27 09:33:02;;;;;;;5.03;0.20;;;15.70;77.90;;;;;;5071501;28;20051;-46
2023/03/27 09:35:28;;;;;;;2.42;0.20;;;14.70;79.50;;;;;;5089668;28;20070;-47
2023/03/27 09:37:58;;;;;;;3.90;0.45;;;14.60;82.20;;;;;;5089599;28;20124;-47
2023/03/27 09:40:40;;;;;;;4.22;0.20;;;14.90;81.80;;;;;;5089229;28;20919;-48
2023/03/27 09:43:11;;;;;;;17.23;0.93;;;14.90;79.60;;;;;;5089440;28;20123;-49
2023/03/27 09:45:39;;;;;;;3.30;0.20;;;15.10;79.60;;;;;;5089435;28;20105;-49
2023/03/27 09:48:13;;;;;;;4.28;0.40;;;14.40;77.10;;;;;;5089512;28;20047;-48
2023/03/27 09:50:43;;;;;;;6.75;0.63;;;13.60;77.60;;;;;;5089245;28;20067;-47
2023/03/27 09:53:21;;;;;;;1.30;0.30;;;13.30;80.30;;;;;;5089686;28;20166;-48
2023/03/27 09:56:01;;;;;;;3.85;0.30;;;12.50;78.10;;;;;;5089465;28;20071;-48
2023/03/27 09:58:26;;;;;;;5.93;0.93;;;11.50;79.90;;;;;;5088745;28;20040;-48
2023/03/27 10:01:14;;;;;;;2.50;0.73;;;11.60;82.40;;;;;;5089395;28;20131;-48
2023/03/27 10:03:51;;;;;;;2.78;0.10;;;13.10;84.30;;;;;;5089247;28;20478;-47
2023/03/27 10:06:29;;;;;;;2.55;0.10;;;13.50;80.60;;;;;;5089226;28;20069;-49
2023/03/27 10:08:59;;;;;;;3.08;0.10;;;13.60;77.60;;;;;;5089778;28;20044;-50
2023/03/27 10:11:32;;;;;;;2.90;0.10;;;12.70;76.60;;;;;;5089155;28;20123;-49
2023/03/27 10:14:00;;;;;;;2.03;0.10;;;11.80;76.60;;;;;;5089245;28;20044;-48
2023/03/27 10:16:27;;;;;;;2.15;0.20;;;11.90;79.40;;;;;;5089067;28;20047;-49
2023/03/27 10:18:56;;;;;;;0.95;0.10;;;12.70;78.40;;;;;;5089549;28;20044;-49
2023/03/27 10:21:27;;;;;;;2.50;0.17;;;13.50;78.20;;;;;;5089501;28;20188;-48
2023/03/27 10:24:03;;;;;;;2.45;0.20;;;14.30;77.70;;;;;;5089490;28;20638;-47
2023/03/27 10:26:31;;;;;;;3.10;0.50;;;15.10;76.10;;;;;;5089170;28;20498;-47
2023/03/27 10:29:04;;;;;;;5.93;0.38;;;15.40;74.10;;;;;;5070844;28;20039;-46
2023/03/27 10:31:36;;;;;;;1.40;0.10;;;15.70;84.90;;;;;;5088468;28;20914;-47
2023/03/27 10:34:05;;;;;;;1.13;0.10;;;15.80;73.90;;;;;;5088568;28;20032;-49
2023/03/27 10:36:33;;;;;;;0.90;0.10;;;15.50;82.40;;;;;;5087980;28;20043;-47
2023/03/27 10:39:11;;;;;;;1.48;0.15;;;15.40;69.80;;;;;;5088375;28;20533;-46
2023/03/27 10:41:38;;;;;;;4.97;0.32;;;15.40;69.90;;;;;;5088671;28;20071;-47
2023/03/27 10:44:14;;;;;;;2.58;0.13;;;15.20;69.30;;;;;;5088890;28;20047;-49
2023/03/27 10:46:42;;;;;;;4.10;0.10;;;14.50;68.30;;;;;;5088430;28;20160;-46
2023/03/27 10:49:41;;;;;;;3.38;0.43;;;13.50;69.00;;;;;;5088949;28;20044;-49
2023/03/27 10:52:21;;;;;;;4.25;0.30;;;12.80;70.60;;;;;;5088482;28;20044;-48
2023/03/27 10:54:55;;;;;;;1.73;0.20;;;12.10;72.10;;;;;;5088175;28;20040;-46
2023/03/27 10:57:36;;;;;;;3.30;0.10;;;11.40;75.10;;;;;;5088342;28;20047;-47
2023/03/27 11:00:21;;;;;;;3.35;0.20;;;11.40;76.70;;;;;;5088178;28;20557;-46
2023/03/27 11:03:11;;;;;;;9.23;0.20;;;11.30;76.00;;;;;;5088066;28;20040;-47
2023/03/27 11:05:46;;;;;;;5.93;0.63;;;11.10;86.70;;;;;;5087656;28;20811;-48
2023/03/27 11:08:27;;;;;;;3.60;0.32;;;10.70;77.80;;;;;;5088067;28;20391;-51
2023/03/27 11:11:00;;;;;;;1.85;0.15;;;10.60;89.30;;;;;;5088076;28;20059;-46
2023/03/27 11:13:32;;;;;;;1.70;0.32;;;10.10;91.00;;;;;;5088169;28;20047;-47
2023/03/27 11:16:25;;;;;;;3.75;0.20;;;10.20;79.10;;;;;;5088075;28;20036;-47
2023/03/27 11:19:17;;;;;;;1.88;0.10;;;9.90;79.40;;;;;;5088090;28;20071;-46
2023/03/27 11:21:46;;;;;;;2.73;0.50;;;9.60;78.40;;;;;;5068337;28;20401;-47
2023/03/27 11:24:38;;;;;;;1.77;0.10;;;10.00;79.30;;;;;;5086455;28;20047;-47
2023/03/27 11:27:12;;;;;;;5.82;0.40;;;9.50;80.00;;;;;;5087541;28;20076;-47
2023/03/27 11:30:07;;;;;;;2.80;0.20;;;10.20;81.40;;;;;;5087030;28;20044;-46
2023/03/27 11:32:51;;;;;;;3.97;0.20;;;9.80;80.80;;;;;;5087430;28;20127;-46
2023/03/27 11:35:23;;;;;;;1.70;0.10;;;9.70;79.90;;;;;;5087401;28;20040;-47
2023/03/27 11:38:13;;;;;;;2.35;0.30;;;9.60;79.10;;;;;;5087394;28;20086;-49
2023/03/27 11:40:44;;;;;;;1.63;0.30;;;9.60;78.90;;;;;;5087227;28;20193;-47
2023/03/27 11:43:12;;;;;;;4.38;0.20;;;9.50;79.60;;;;;;5087728;28;20089;-46
2023/03/27 11:45:44;;;;;;;5.00;0.63;;;9.50;81.30;;;;;;5081787;27;20499;-44
2023/03/27 11:48:51;;;;;;;3.05;0.50;;;9.60;80.20;;;;;;5083857;28;20486;-45
2023/03/27 11:51:27;;;;;;;6.18;0.57;;;9.60;80.10;;;;;;5083166;28;20072;-47
2023/03/27 11:54:26;;;;;;;8.18;0.20;;;9.80;80.40;;;;;;5083427;28;20036;-44
2023/03/27 11:56:54;;;;;;;7.43;0.50;;;10.20;80.00;;;;;;5083202;28;20125;-46
2023/03/27 11:59:54;;;;;;;1.30;0.40;;;10.00;81.10;;;;;;5083238;28;20074;-44
2023/03/27 12:02:45;;;;;;;4.68;0.20;;;9.10;81.80;;;;;;5083149;28;20043;-44
2023/03/27 12:05:43;;;;;;;3.10;0.10;;;8.50;83.50;;;;;;5082776;28;20607;-47
2023/03/27 12:08:30;;;;;;;0.82;0.00;;;7.80;96.00;;;;;;5082394;28;20086;-47
2023/03/27 12:10:59;;;;;;;1.35;0.05;;;8.10;90.40;;;;;;5083058;28;20044;-46
2023/03/27 12:13:37;;;;;;;0.57;0.00;;;8.40;90.80;;;;;;5083284;28;20066;-47
2023/03/27 12:16:26;;;;;;;2.25;0.10;;;7.10;93.50;;;;;;5083047;28;20123;-47
2023/03/27 12:19:04;;;;;;;4.00;0.20;;;7.00;92.80;;;;;;5066708;28;20039;-47
2023/03/27 12:21:52;;;;;;;5.10;0.40;;;6.90;92.10;;;;;;5063179;28;20051;-46
2023/03/27 12:24:27;;;;;;;2.88;0.35;;;7.00;92.70;;;;;;5063031;28;20075;-46
2023/03/27 12:27:04;;;;;;;2.20;0.20;;;7.10;92.80;;;;;;5062777;28;20051;-47
2023/03/27 12:29:32;;;;;;;4.97;0.50;;;7.10;92.90;;;;;;5063063;28;20427;-47
2023/03/27 12:32:29;;;;;;;3.65;0.28;;;7.70;94.20;;;;;;5062579;28;20032;-49
2023/03/27 12:34:59;;;;;;;5.20;0.28;;;7.40;93.30;;;;;;5062708;28;20423;-47
2023/03/27 12:38:06;;;;;;;4.00;0.40;;;8.60;94.10;;;;;;5063363;28;20161;-47
2023/03/27 12:40:46;;;;;;;4.68;0.43;;;7.70;92.20;;;;;;5061605;28;20202;-49
2023/03/27 12:43:32;;;;;;;4.07;0.20;;;7.90;92.90;;;;;;5062395;28;20040;-49
2023/03/27 12:46:25;;;;;;;4.55;0.25;;;7.40;91.00;;;;;;5061611;28;20083;-47
2023/03/27 12:49:06;;;;;;;;;;;7.40;90.60;;;;;;5062262;28;20028;-46
2023/03/27 12:51:43;;;;;;;4.70;0.20;;;7.40;90.30;;;;;;5061643;28;20647;-48
2023/03/27 12:54:22;;;;;;;5.78;0.47;;;7.60;90.60;;;;;;5062428;28;20037;-46
2023/03/27 12:57:16;;;;;;;9.10;0.63;;;8.40;91.50;;;;;;5049948;28;20119;-47
2023/03/27 12:59:52;;;;;;;3.47;0.20;;;8.10;89.90;;;;;;5048791;28;20110;-46
2023/03/27 13:02:49;;;;;;;2.33;0.20;;;8.20;87.80;;;;;;5048863;28;20052;-46
2023/03/27 13:05:42;;;;;;;5.55;0.20;;;8.20;87.70;;;;;;5048335;28;20510;-46
2023/03/27 13:08:28;;;;;;;4.97;0.30;;;8.10;87.30;;;;;;5048702;28;20043;-47
2023/03/27 13:11:17;;;;;;;5.40;0.20;;;8.00;87.70;;;;;;5048070;28;20480;-48
2023/03/27 13:14:08;;;;;;;7.05;0.55;;;8.80;90.10;;;;;;5048260;28;20554;-47
2023/03/27 13:17:01;;;;;;;2.70;0.13;;;8.10;87.80;;;;;;5048254;28;20048;-47
2023/03/27 13:20:00;;;;;;;3.30;0.30;;;8.50;90.00;;;;;;5036214;28;20118;-47